createdAt,value
2018-09-27T00:00:00.775Z,0.00
2018-09-27T00:01:00.769Z,0.00
2018-09-27T00:02:00.762Z,0.00
2018-09-27T00:03:00.757Z,0.00
2018-09-27T00:04:00.751Z,0.00
2018-09-27T00:05:00.738Z,0.00
2018-09-27T00:06:00.731Z,0.00
2018-09-27T00:07:00.730Z,0.00
2018-09-27T00:08:00.722Z,0.00
2018-09-27T00:09:00.711Z,0.00
2018-09-27T00:10:00.707Z,0.00
2018-09-27T00:11:00.698Z,0.00
2018-09-27T00:12:00.696Z,0.00
2018-09-27T00:13:00.688Z,0.00
2018-09-27T00:14:00.680Z,0.00
2018-09-27T00:15:00.674Z,0.00
2018-09-27T00:16:00.669Z,0.00
2018-09-27T00:17:00.656Z,0.00
2018-09-27T00:18:00.649Z,0.00
2018-09-27T00:19:00.643Z,0.00
2018-09-27T00:20:00.636Z,0.00
2018-09-27T00:21:00.634Z,0.00
2018-09-27T00:22:00.630Z,0.00
2018-09-27T00:23:00.617Z,0.00
2018-09-27T00:24:00.609Z,0.00
2018-09-27T00:25:00.607Z,0.00
2018-09-27T00:26:00.603Z,0.00
2018-09-27T00:27:00.597Z,0.00
2018-09-27T00:28:00.587Z,0.00
2018-09-27T00:29:00.579Z,0.00
2018-09-27T00:30:00.567Z,0.00
2018-09-27T00:31:00.562Z,0.00
2018-09-27T00:32:00.557Z,0.00
2018-09-27T00:33:00.550Z,0.00
2018-09-27T00:34:00.545Z,0.00
2018-09-27T00:35:00.539Z,0.00
2018-09-27T00:36:00.532Z,0.00
2018-09-27T00:37:00.519Z,0.00
2018-09-27T00:38:00.514Z,0.00
2018-09-27T00:39:00.511Z,0.00
2018-09-27T00:40:00.504Z,0.00
2018-09-27T00:41:00.492Z,0.00
2018-09-27T00:42:00.488Z,0.00
2018-09-27T00:43:00.477Z,0.00
2018-09-27T00:44:00.471Z,0.00
2018-09-27T00:45:00.467Z,0.00
2018-09-27T00:46:00.465Z,0.00
2018-09-27T00:47:00.450Z,0.00
2018-09-27T00:48:00.443Z,0.00
2018-09-27T00:49:00.487Z,0.00
2018-09-27T00:50:00.432Z,0.00
2018-09-27T00:51:00.427Z,0.00
2018-09-27T00:52:00.420Z,0.00
2018-09-27T00:53:00.409Z,0.00
2018-09-27T00:54:00.400Z,0.00
2018-09-27T00:55:00.399Z,0.00
2018-09-27T00:56:00.393Z,0.00
2018-09-27T00:57:00.379Z,0.00
2018-09-27T00:58:00.372Z,0.00
2018-09-27T00:59:00.365Z,0.00
2018-09-27T01:00:00.358Z,0.00
2018-09-27T01:01:00.355Z,0.00
2018-09-27T01:02:00.348Z,0.00
2018-09-27T01:03:00.341Z,0.00
2018-09-27T01:04:00.337Z,0.00
2018-09-27T01:05:00.323Z,0.00
2018-09-27T01:06:00.317Z,0.00
2018-09-27T01:07:00.310Z,0.00
2018-09-27T01:08:00.303Z,0.00
2018-09-27T01:09:00.301Z,0.00
2018-09-27T01:10:00.294Z,0.00
2018-09-27T01:11:00.283Z,0.00
2018-09-27T01:12:00.275Z,0.00
2018-09-27T01:13:00.272Z,0.00
2018-09-27T01:14:00.266Z,0.00
2018-09-27T01:15:00.258Z,0.00
2018-09-27T01:16:00.252Z,0.00
2018-09-27T01:17:00.238Z,0.00
2018-09-27T01:18:00.232Z,0.00
2018-09-27T01:19:00.226Z,0.00
2018-09-27T01:20:00.218Z,0.00
2018-09-27T01:21:00.215Z,0.00
2018-09-27T01:22:00.207Z,0.00
2018-09-27T01:23:00.202Z,0.00
2018-09-27T01:24:00.198Z,0.00
2018-09-27T01:25:00.181Z,0.00
2018-09-27T01:26:00.176Z,0.00
2018-09-27T01:27:00.174Z,0.00
2018-09-27T01:28:00.167Z,0.00
2018-09-27T01:29:00.154Z,0.00
2018-09-27T01:30:00.148Z,0.00
2018-09-27T01:31:00.140Z,0.00
2018-09-27T01:32:00.133Z,0.00
2018-09-27T01:33:00.132Z,0.00
2018-09-27T01:34:00.123Z,0.00
2018-09-27T01:35:00.117Z,0.00
2018-09-27T01:36:00.108Z,0.00
2018-09-27T01:37:00.097Z,0.00
2018-09-27T01:38:00.090Z,0.00
2018-09-27T01:39:00.084Z,0.00
2018-09-27T01:40:00.077Z,0.00
2018-09-27T01:41:00.074Z,0.00
2018-09-27T01:42:00.068Z,0.00
2018-09-27T01:43:00.056Z,0.00
2018-09-27T01:44:00.049Z,0.00
2018-09-27T01:45:00.046Z,0.00
2018-09-27T01:46:00.041Z,0.00
2018-09-27T01:47:00.071Z,0.00
2018-09-27T01:48:00.025Z,0.00
2018-09-27T01:49:00.012Z,0.00
2018-09-27T01:50:00.005Z,0.00
2018-09-27T01:51:00.000Z,0.00
2018-09-27T01:51:59.991Z,0.00
2018-09-27T01:52:59.988Z,0.00
2018-09-27T01:53:59.982Z,0.00
2018-09-27T01:54:59.977Z,0.00
2018-09-27T01:55:59.971Z,0.00
2018-09-27T01:56:59.954Z,0.00
2018-09-27T01:57:59.948Z,0.00
2018-09-27T01:58:59.945Z,0.00
2018-09-27T01:59:59.939Z,0.00
2018-09-27T02:00:59.926Z,0.00
2018-09-27T02:01:59.920Z,0.00
2018-09-27T02:02:59.911Z,0.00
2018-09-27T02:03:59.905Z,0.00
2018-09-27T02:04:59.902Z,0.00
2018-09-27T02:05:59.896Z,0.00
2018-09-27T02:06:59.888Z,0.00
2018-09-27T02:07:59.881Z,0.00
2018-09-27T02:08:59.868Z,0.00
2018-09-27T02:09:59.862Z,0.00
2018-09-27T02:10:59.857Z,0.00
2018-09-27T02:11:59.848Z,0.00
2018-09-27T02:12:59.843Z,0.00
2018-09-27T02:13:59.837Z,0.00
2018-09-27T02:14:59.825Z,0.00
2018-09-27T02:15:59.818Z,0.00
2018-09-27T02:16:59.815Z,0.00
2018-09-27T02:17:59.808Z,0.00
2018-09-27T02:18:59.802Z,0.00
2018-09-27T02:19:59.798Z,0.00
2018-09-27T02:20:59.782Z,0.00
2018-09-27T02:21:59.776Z,0.00
2018-09-27T02:22:59.767Z,0.00
2018-09-27T02:23:59.760Z,0.00
2018-09-27T02:24:59.759Z,0.00
2018-09-27T02:25:59.756Z,0.00
2018-09-27T02:26:59.743Z,0.00
2018-09-27T02:27:59.736Z,0.00
2018-09-27T02:28:59.724Z,0.00
2018-09-27T02:29:59.717Z,0.00
2018-09-27T02:30:59.716Z,0.00
2018-09-27T02:31:59.706Z,0.00
2018-09-27T02:32:59.695Z,0.00
2018-09-27T02:33:59.689Z,0.00
2018-09-27T02:34:59.684Z,0.00
2018-09-27T02:35:59.673Z,0.00
2018-09-27T02:36:59.673Z,0.00
2018-09-27T02:37:59.664Z,0.00
2018-09-27T02:38:59.657Z,0.00
2018-09-27T02:39:59.650Z,0.00
2018-09-27T02:40:59.636Z,0.00
2018-09-27T02:41:59.630Z,0.00
2018-09-27T02:42:59.622Z,0.00
2018-09-27T02:43:59.615Z,0.00
2018-09-27T02:44:59.612Z,0.00
2018-09-27T02:45:59.604Z,0.00
2018-09-27T02:46:59.593Z,0.00
2018-09-27T02:47:59.587Z,0.00
2018-09-27T02:48:59.583Z,0.00
2018-09-27T02:49:59.576Z,0.00
2018-09-27T02:50:59.569Z,0.00
2018-09-27T02:51:59.562Z,0.00
2018-09-27T02:52:59.549Z,0.00
2018-09-27T02:53:59.542Z,0.00
2018-09-27T02:54:59.538Z,0.00
2018-09-27T02:55:59.536Z,0.00
2018-09-27T02:56:59.527Z,0.00
2018-09-27T02:57:59.517Z,0.00
2018-09-27T02:58:59.510Z,0.00
2018-09-27T02:59:59.503Z,0.00
2018-09-27T03:00:59.495Z,0.00
2018-09-27T03:01:59.482Z,0.00
2018-09-27T03:02:59.480Z,0.00
2018-09-27T03:03:59.473Z,0.00
2018-09-27T03:04:59.460Z,0.00
2018-09-27T03:05:59.460Z,0.00
2018-09-27T03:06:59.445Z,0.00
2018-09-27T03:07:59.439Z,0.00
2018-09-27T03:08:59.436Z,0.00
2018-09-27T03:09:59.429Z,0.00
2018-09-27T03:10:59.421Z,0.00
2018-09-27T03:11:59.417Z,0.00
2018-09-27T03:12:59.402Z,0.00
2018-09-27T03:13:59.458Z,0.00
2018-09-27T03:14:59.387Z,0.00
2018-09-27T03:15:59.381Z,0.00
2018-09-27T03:16:59.379Z,0.00
2018-09-27T03:17:59.369Z,0.00
2018-09-27T03:18:59.358Z,0.00
2018-09-27T03:19:59.351Z,0.00
2018-09-27T03:20:59.426Z,0.00
2018-09-27T03:21:59.340Z,0.00
2018-09-27T03:22:59.332Z,0.00
2018-09-27T03:23:59.324Z,0.00
2018-09-27T03:24:59.313Z,0.00
2018-09-27T03:25:59.328Z,0.00
2018-09-27T03:26:59.299Z,0.00
2018-09-27T03:27:59.294Z,0.00
2018-09-27T03:28:59.289Z,0.00
2018-09-27T03:29:59.280Z,0.00
2018-09-27T03:30:59.274Z,0.00
2018-09-27T03:31:59.267Z,0.00
2018-09-27T03:32:59.255Z,0.00
2018-09-27T03:33:59.247Z,0.00
2018-09-27T03:34:59.244Z,0.00
2018-09-27T03:35:59.237Z,0.00
2018-09-27T03:36:59.224Z,0.00
2018-09-27T03:37:59.217Z,0.00
2018-09-27T03:38:59.220Z,0.00
2018-09-27T03:39:59.270Z,0.00
2018-09-27T03:40:59.199Z,0.00
2018-09-27T03:41:59.192Z,0.00
2018-09-27T03:42:59.187Z,0.00
2018-09-27T03:43:59.176Z,0.00
2018-09-27T03:44:59.163Z,0.00
2018-09-27T03:45:59.157Z,0.00
2018-09-27T03:46:59.151Z,0.00
2018-09-27T03:47:59.144Z,0.00
2018-09-27T03:48:59.140Z,0.00
2018-09-27T03:49:59.132Z,0.00
2018-09-27T03:50:59.124Z,0.00
2018-09-27T03:51:59.114Z,0.00
2018-09-27T03:52:59.110Z,0.00
2018-09-27T03:53:59.104Z,0.00
2018-09-27T03:54:59.098Z,0.00
2018-09-27T03:55:59.089Z,0.00
2018-09-27T03:56:59.076Z,0.00
2018-09-27T03:57:59.068Z,0.00
2018-09-27T03:58:59.064Z,0.00
2018-09-27T03:59:59.054Z,0.00
2018-09-27T04:00:59.051Z,0.00
2018-09-27T04:01:59.043Z,0.00
2018-09-27T04:02:59.036Z,0.00
2018-09-27T04:03:59.033Z,0.00
2018-09-27T04:04:59.016Z,0.00
2018-09-27T04:05:59.008Z,0.00
2018-09-27T04:06:59.005Z,0.00
2018-09-27T04:07:58.999Z,0.00
2018-09-27T04:08:58.987Z,0.00
2018-09-27T04:09:58.979Z,0.00
2018-09-27T04:10:58.971Z,0.00
2018-09-27T04:11:58.965Z,0.00
2018-09-27T04:12:58.962Z,0.00
2018-09-27T04:13:58.955Z,0.00
2018-09-27T04:14:58.947Z,0.00
2018-09-27T04:15:58.944Z,0.00
2018-09-27T04:16:58.926Z,0.00
2018-09-27T04:17:58.919Z,0.00
2018-09-27T04:18:58.912Z,0.00
2018-09-27T04:19:58.905Z,0.00
2018-09-27T04:20:58.902Z,0.00
2018-09-27T04:21:58.896Z,0.00
2018-09-27T04:22:58.882Z,0.00
2018-09-27T04:23:58.908Z,0.00
2018-09-27T04:24:58.874Z,0.00
2018-09-27T04:25:58.864Z,0.00
2018-09-27T04:26:58.858Z,0.00
2018-09-27T04:27:58.850Z,0.00
2018-09-27T04:28:58.837Z,0.00
2018-09-27T04:29:58.829Z,0.00
2018-09-27T04:30:58.821Z,0.00
2018-09-27T04:31:58.813Z,0.00
2018-09-27T04:32:58.810Z,0.00
2018-09-27T04:33:58.807Z,0.00
2018-09-27T04:34:58.795Z,0.00
2018-09-27T04:35:58.789Z,0.00
2018-09-27T04:36:58.779Z,0.00
2018-09-27T04:37:58.768Z,0.00
2018-09-27T04:38:58.765Z,0.00
2018-09-27T04:39:58.760Z,0.00
2018-09-27T04:40:58.779Z,0.00
2018-09-27T04:41:58.738Z,0.00
2018-09-27T04:42:58.730Z,0.00
2018-09-27T04:43:58.723Z,0.00
2018-09-27T04:44:58.719Z,0.00
2018-09-27T04:45:58.864Z,0.00
2018-09-27T04:46:58.705Z,0.00
2018-09-27T04:47:58.697Z,0.00
2018-09-27T04:48:58.684Z,0.00
2018-09-27T04:49:58.677Z,0.00
2018-09-27T04:50:58.669Z,4.00
2018-09-27T04:51:58.707Z,4.00
2018-09-27T04:52:58.657Z,0.00
2018-09-27T04:53:58.650Z,4.00
2018-09-27T04:54:58.639Z,4.00
2018-09-27T04:55:58.630Z,4.00
2018-09-27T04:56:58.626Z,4.00
2018-09-27T04:57:58.620Z,8.00
2018-09-27T04:58:58.614Z,8.00
2018-09-27T04:59:58.630Z,8.00
2018-09-27T05:00:58.593Z,8.00
2018-09-27T05:01:58.585Z,12.00
2018-09-27T05:02:58.577Z,16.00
2018-09-27T05:03:58.570Z,16.00
2018-09-27T05:04:58.566Z,20.00
2018-09-27T05:05:58.559Z,24.00
2018-09-27T05:06:58.550Z,28.00
2018-09-27T05:07:58.543Z,32.00
2018-09-27T05:08:58.531Z,40.00
2018-09-27T05:09:58.524Z,44.00
2018-09-27T05:10:58.520Z,52.00
2018-09-27T05:11:58.516Z,60.00
2018-09-27T05:12:58.500Z,68.00
2018-09-27T05:13:58.492Z,80.00
2018-09-27T05:14:58.486Z,88.00
2018-09-27T05:15:58.523Z,100.00
2018-09-27T05:16:58.474Z,116.00
2018-09-27T05:17:58.466Z,132.00
2018-09-27T05:18:58.459Z,148.00
2018-09-27T05:19:58.453Z,164.00
2018-09-27T05:20:58.438Z,184.00
2018-09-27T05:21:58.431Z,204.00
2018-09-27T05:22:58.425Z,224.00
2018-09-27T05:23:58.416Z,244.00
2018-09-27T05:24:58.412Z,268.00
2018-09-27T05:25:58.405Z,296.00
2018-09-27T05:26:58.393Z,324.00
2018-09-27T05:27:58.385Z,352.00
2018-09-27T05:28:58.388Z,376.00
2018-09-27T05:29:58.374Z,412.00
2018-09-27T05:30:58.371Z,440.00
2018-09-27T05:31:58.360Z,472.00
2018-09-27T05:32:58.347Z,508.00
2018-09-27T05:33:58.339Z,544.00
2018-09-27T05:34:58.333Z,580.00
2018-09-27T05:35:58.326Z,620.00
2018-09-27T05:36:58.323Z,656.00
2018-09-27T05:37:58.315Z,696.00
2018-09-27T05:38:58.306Z,736.00
2018-09-27T05:39:58.300Z,780.00
2018-09-27T05:40:58.286Z,820.00
2018-09-27T05:41:58.279Z,860.00
2018-09-27T05:42:58.278Z,904.00
2018-09-27T05:43:58.270Z,948.00
2018-09-27T05:44:58.261Z,992.00
2018-09-27T05:45:58.250Z,1032.00
2018-09-27T05:46:58.242Z,1076.00
2018-09-27T05:47:58.236Z,1120.00
2018-09-27T05:48:58.232Z,1164.00
2018-09-27T05:49:58.248Z,1204.00
2018-09-27T05:50:58.218Z,1252.00
2018-09-27T05:51:58.211Z,1304.00
2018-09-27T05:52:58.197Z,1368.00
2018-09-27T05:53:58.191Z,1512.00
2018-09-27T05:54:58.184Z,2464.00
2018-09-27T05:55:58.307Z,5036.00
2018-09-27T05:56:58.173Z,6616.00
2018-09-27T05:57:58.168Z,6728.00
2018-09-27T05:58:58.155Z,6180.00
2018-09-27T05:59:58.148Z,4624.00
2018-09-27T06:00:58.144Z,4068.00
2018-09-27T06:01:58.207Z,4152.00
2018-09-27T06:02:58.131Z,4812.00
2018-09-27T06:03:58.125Z,4844.00
2018-09-27T06:04:58.113Z,5124.00
2018-09-27T06:05:58.107Z,3740.00
2018-09-27T06:06:58.101Z,2720.00
2018-09-27T06:07:58.095Z,3780.00
2018-09-27T06:08:58.092Z,4440.00
2018-09-27T06:09:58.087Z,3164.00
2018-09-27T06:10:58.081Z,3272.00
2018-09-27T06:11:58.075Z,3524.00
2018-09-27T06:12:58.065Z,4224.00
2018-09-27T06:13:58.058Z,4736.00
2018-09-27T06:14:58.056Z,6456.00
2018-09-27T06:15:58.050Z,10848.00
2018-09-27T06:16:58.039Z,14144.00
2018-09-27T06:17:58.035Z,14528.00
2018-09-27T06:18:58.028Z,15072.00
2018-09-27T06:19:58.025Z,15328.00
2018-09-27T06:20:58.022Z,15680.00
2018-09-27T06:21:58.018Z,16032.00
2018-09-27T06:22:58.012Z,16224.00
2018-09-27T06:23:58.009Z,16320.00
2018-09-27T06:24:57.997Z,16800.00
2018-09-27T06:25:58.018Z,17056.00
2018-09-27T06:26:57.991Z,17376.00
2018-09-27T06:27:57.988Z,17760.00
2018-09-27T06:28:57.989Z,18144.00
2018-09-27T06:29:57.987Z,18464.00
2018-09-27T06:30:57.977Z,18720.00
2018-09-27T06:31:57.975Z,18976.00
2018-09-27T06:32:57.978Z,19200.00
2018-09-27T06:33:57.977Z,19456.00
2018-09-27T06:34:58.029Z,19648.00
2018-09-27T06:35:57.973Z,19936.00
2018-09-27T06:36:57.967Z,20160.00
2018-09-27T06:37:57.965Z,20448.00
2018-09-27T06:38:57.966Z,20736.00
2018-09-27T06:39:57.967Z,20992.00
2018-09-27T06:40:57.969Z,21344.00
2018-09-27T06:41:57.970Z,21568.00
2018-09-27T06:42:57.974Z,21824.00
2018-09-27T06:43:57.971Z,21952.00
2018-09-27T06:44:57.970Z,22176.00
2018-09-27T06:45:57.968Z,22400.00
2018-09-27T06:46:57.975Z,22624.00
2018-09-27T06:47:57.976Z,22816.00
2018-09-27T06:48:57.974Z,23040.00
2018-09-27T06:49:57.972Z,23232.00
2018-09-27T06:50:57.976Z,23552.00
2018-09-27T06:51:57.978Z,23648.00
2018-09-27T06:52:57.985Z,23808.00
2018-09-27T06:53:57.986Z,24032.00
2018-09-27T06:54:58.080Z,24224.00
2018-09-27T06:55:58.083Z,24384.00
2018-09-27T06:56:57.990Z,24544.00
2018-09-27T06:57:57.995Z,24768.00
2018-09-27T06:58:57.996Z,24928.00
2018-09-27T06:59:58.000Z,25120.00
2018-09-27T07:00:58.053Z,25312.00
2018-09-27T07:01:58.018Z,25472.00
2018-09-27T07:02:58.011Z,25664.00
2018-09-27T07:03:58.015Z,25856.00
2018-09-27T07:04:58.087Z,25984.00
2018-09-27T07:05:58.027Z,26112.00
2018-09-27T07:06:58.031Z,26240.00
2018-09-27T07:07:58.035Z,26272.00
2018-09-27T07:08:58.035Z,26432.00
2018-09-27T07:09:58.039Z,26592.00
2018-09-27T07:10:58.044Z,26784.00
2018-09-27T07:11:58.139Z,26912.00
2018-09-27T07:12:58.059Z,27104.00
2018-09-27T07:13:58.066Z,27168.00
2018-09-27T07:14:58.067Z,27392.00
2018-09-27T07:15:58.073Z,27456.00
2018-09-27T07:16:58.073Z,27584.00
2018-09-27T07:17:58.077Z,27712.00
2018-09-27T07:18:58.088Z,27840.00
2018-09-27T07:19:58.093Z,28000.00
2018-09-27T07:20:58.093Z,28128.00
2018-09-27T07:21:58.099Z,28256.00
2018-09-27T07:22:58.105Z,28320.00
2018-09-27T07:23:58.111Z,28448.00
2018-09-27T07:24:58.168Z,28512.00
2018-09-27T07:25:58.127Z,28704.00
2018-09-27T07:26:58.205Z,28800.00
2018-09-27T07:27:58.138Z,28896.00
2018-09-27T07:28:58.140Z,15360.00
2018-09-27T07:29:58.149Z,15424.00
2018-09-27T07:30:58.210Z,15520.00
2018-09-27T07:31:58.159Z,15616.00
2018-09-27T07:32:58.167Z,15712.00
2018-09-27T07:33:58.174Z,15776.00
2018-09-27T07:34:58.181Z,15840.00
2018-09-27T07:35:58.181Z,15968.00
2018-09-27T07:36:58.193Z,16064.00
2018-09-27T07:37:58.200Z,16160.00
2018-09-27T07:38:58.206Z,16320.00
2018-09-27T07:39:58.213Z,16448.00
2018-09-27T07:40:58.214Z,16544.00
2018-09-27T07:41:58.220Z,16608.00
2018-09-27T07:42:58.227Z,16736.00
2018-09-27T07:43:58.234Z,16832.00
2018-09-27T07:44:58.243Z,16992.00
2018-09-27T07:45:58.250Z,17120.00
2018-09-27T07:46:58.255Z,17184.00
2018-09-27T07:47:58.263Z,17280.00
2018-09-27T07:48:58.265Z,17376.00
2018-09-27T07:49:58.270Z,17536.00
2018-09-27T07:50:58.282Z,17696.00
2018-09-27T07:51:58.287Z,17824.00
2018-09-27T07:52:58.294Z,17952.00
2018-09-27T07:53:58.296Z,18112.00
2018-09-27T07:54:58.303Z,18240.00
2018-09-27T07:55:58.309Z,18304.00
2018-09-27T07:56:58.320Z,18464.00
2018-09-27T07:57:58.325Z,18528.00
2018-09-27T07:58:58.332Z,18656.00
2018-09-27T07:59:58.340Z,18784.00
2018-09-27T08:00:58.341Z,18976.00
2018-09-27T08:01:58.347Z,19232.00
2018-09-27T08:02:58.391Z,19488.00
2018-09-27T08:03:58.364Z,19744.00
2018-09-27T08:04:58.373Z,19872.00
2018-09-27T08:05:58.378Z,20032.00
2018-09-27T08:06:58.380Z,20032.00
2018-09-27T08:07:58.386Z,20064.00
2018-09-27T08:08:58.396Z,20128.00
2018-09-27T08:09:58.404Z,20224.00
2018-09-27T08:10:58.423Z,20416.00
2018-09-27T08:11:58.523Z,20608.00
2018-09-27T08:12:58.422Z,20768.00
2018-09-27T08:13:58.426Z,21120.00
2018-09-27T08:14:58.433Z,21568.00
2018-09-27T08:15:58.442Z,21920.00
2018-09-27T08:16:58.564Z,22080.00
2018-09-27T08:17:58.460Z,22208.00
2018-09-27T08:18:58.470Z,22496.00
2018-09-27T08:19:58.476Z,23360.00
2018-09-27T08:20:58.563Z,24384.00
2018-09-27T08:21:58.486Z,25344.00
2018-09-27T08:22:58.499Z,26976.00
2018-09-27T08:23:58.513Z,29344.00
2018-09-27T08:24:58.510Z,32800.00
2018-09-27T08:25:58.518Z,35232.00
2018-09-27T08:26:58.526Z,37312.00
2018-09-27T08:27:58.533Z,38752.00
2018-09-27T08:28:58.547Z,36608.00
2018-09-27T08:29:58.558Z,33696.00
2018-09-27T08:30:58.688Z,31488.00
2018-09-27T08:31:58.576Z,30752.00
2018-09-27T08:32:58.580Z,29664.00
2018-09-27T08:33:58.587Z,28000.00
2018-09-27T08:34:58.594Z,26208.00
2018-09-27T08:35:58.604Z,24896.00
2018-09-27T08:36:58.617Z,24160.00
2018-09-27T08:37:58.629Z,24160.00
2018-09-27T08:38:58.632Z,24544.00
2018-09-27T08:39:58.643Z,25024.00
2018-09-27T08:40:58.658Z,25920.00
2018-09-27T08:41:58.667Z,26976.00
2018-09-27T08:42:58.675Z,28960.00
2018-09-27T08:43:58.687Z,30848.00
2018-09-27T08:44:58.914Z,30784.00
2018-09-27T08:45:58.707Z,31136.00
2018-09-27T08:46:58.714Z,32288.00
2018-09-27T08:47:58.727Z,34528.00
2018-09-27T08:48:58.739Z,37536.00
2018-09-27T08:49:58.749Z,40704.00
2018-09-27T08:50:58.763Z,42464.00
2018-09-27T08:51:58.776Z,42496.00
2018-09-27T08:52:58.780Z,41280.00
2018-09-27T08:53:58.791Z,40192.00
2018-09-27T08:54:58.808Z,37696.00
2018-09-27T08:55:58.984Z,36768.00
2018-09-27T08:56:58.825Z,37536.00
2018-09-27T08:57:58.841Z,38336.00
2018-09-27T08:58:58.852Z,39744.00
2018-09-27T08:59:58.865Z,42208.00
2018-09-27T09:00:58.880Z,43584.00
2018-09-27T09:01:58.893Z,41760.00
2018-09-27T09:02:58.907Z,40000.00
2018-09-27T09:03:58.983Z,40096.00
2018-09-27T09:04:58.928Z,41600.00
2018-09-27T09:05:58.940Z,42464.00
2018-09-27T09:06:58.953Z,42400.00
2018-09-27T09:07:58.967Z,41952.00
2018-09-27T09:08:58.985Z,42048.00
2018-09-27T09:09:58.999Z,40512.00
2018-09-27T09:10:59.008Z,39104.00
2018-09-27T09:11:59.069Z,36192.00
2018-09-27T09:12:59.039Z,34048.00
2018-09-27T09:13:59.055Z,33536.00
2018-09-27T09:14:59.068Z,32768.00
2018-09-27T09:15:59.082Z,32352.00
2018-09-27T09:16:59.089Z,32064.00
2018-09-27T09:17:59.105Z,32064.00
2018-09-27T09:18:59.123Z,31488.00
2018-09-27T09:19:59.137Z,30432.00
2018-09-27T09:20:59.146Z,29408.00
2018-09-27T09:21:59.158Z,27936.00
2018-09-27T09:22:59.174Z,24896.00
2018-09-27T09:23:59.188Z,22400.00
2018-09-27T09:24:59.206Z,21632.00
2018-09-27T09:25:59.225Z,21504.00
2018-09-27T09:26:59.230Z,21568.00
2018-09-27T09:27:59.244Z,21760.00
2018-09-27T09:28:59.262Z,21920.00
2018-09-27T09:29:59.336Z,22176.00
2018-09-27T09:30:59.291Z,22336.00
2018-09-27T09:31:59.306Z,22336.00
2018-09-27T09:32:59.314Z,22272.00
2018-09-27T09:33:59.327Z,21824.00
2018-09-27T09:34:59.341Z,21696.00
2018-09-27T09:35:59.388Z,21568.00
2018-09-27T09:36:59.374Z,21536.00
2018-09-27T09:37:59.391Z,21600.00
2018-09-27T09:38:59.402Z,21664.00
2018-09-27T09:39:59.415Z,21792.00
2018-09-27T09:40:59.425Z,21792.00
2018-09-27T09:41:59.438Z,21760.00
2018-09-27T09:42:59.456Z,21792.00
2018-09-27T09:43:59.472Z,21952.00
2018-09-27T09:44:59.480Z,21952.00
2018-09-27T09:45:59.494Z,21984.00
2018-09-27T09:46:59.510Z,22080.00
2018-09-27T09:47:59.521Z,22208.00
2018-09-27T09:48:59.540Z,22272.00
2018-09-27T09:49:59.615Z,22368.00
2018-09-27T09:50:59.568Z,22464.00
2018-09-27T09:51:59.584Z,22496.00
2018-09-27T09:52:59.589Z,22528.00
2018-09-27T09:53:59.604Z,22656.00
2018-09-27T09:54:59.616Z,22784.00
2018-09-27T09:55:59.631Z,22944.00
2018-09-27T09:56:59.647Z,23232.00
2018-09-27T09:57:59.660Z,23392.00
2018-09-27T09:58:59.670Z,23520.00
2018-09-27T09:59:59.684Z,23680.00
2018-09-27T10:00:59.701Z,23904.00
2018-09-27T10:01:59.713Z,24288.00
2018-09-27T10:02:59.728Z,24736.00
2018-09-27T10:03:59.745Z,24768.00
2018-09-27T10:04:59.750Z,24448.00
2018-09-27T10:05:59.763Z,24352.00
2018-09-27T10:06:59.776Z,24480.00
2018-09-27T10:07:59.789Z,24480.00
2018-09-27T10:08:59.899Z,24512.00
2018-09-27T10:09:59.822Z,24512.00
2018-09-27T10:10:59.836Z,24576.00
2018-09-27T10:11:59.846Z,24704.00
2018-09-27T10:12:59.856Z,24704.00
2018-09-27T10:13:59.869Z,24800.00
2018-09-27T10:14:59.889Z,24704.00
2018-09-27T10:15:59.901Z,24768.00
2018-09-27T10:16:59.909Z,24672.00
2018-09-27T10:17:59.922Z,24608.00
2018-09-27T10:18:59.939Z,24672.00
2018-09-27T10:19:59.952Z,24768.00
2018-09-27T10:20:59.971Z,24672.00
2018-09-27T10:22:00.002Z,24640.00
2018-09-27T10:23:00.000Z,24896.00
2018-09-27T10:24:00.012Z,24704.00
2018-09-27T10:25:00.021Z,24736.00
2018-09-27T10:26:00.034Z,24960.00
2018-09-27T10:27:00.049Z,25024.00
2018-09-27T10:28:00.068Z,25120.00
2018-09-27T10:29:00.086Z,25472.00
2018-09-27T10:30:00.098Z,25728.00
2018-09-27T10:31:00.104Z,25760.00
2018-09-27T10:32:00.119Z,25568.00
2018-09-27T10:33:00.137Z,26080.00
2018-09-27T10:34:00.196Z,26240.00
2018-09-27T10:35:00.164Z,26176.00
2018-09-27T10:36:00.179Z,26016.00
2018-09-27T10:37:00.188Z,25536.00
2018-09-27T10:38:00.201Z,24864.00
2018-09-27T10:39:00.216Z,24544.00
2018-09-27T10:40:00.231Z,24448.00
2018-09-27T10:41:00.248Z,24288.00
2018-09-27T10:42:00.262Z,24288.00
2018-09-27T10:43:00.276Z,24384.00
2018-09-27T10:44:00.290Z,24416.00
2018-09-27T10:45:00.312Z,24352.00
2018-09-27T10:46:00.312Z,24160.00
2018-09-27T10:47:00.331Z,24032.00
2018-09-27T10:48:00.345Z,23936.00
2018-09-27T10:49:00.352Z,23488.00
2018-09-27T10:50:00.366Z,23392.00
2018-09-27T10:51:00.379Z,23040.00
2018-09-27T10:52:00.392Z,23008.00
2018-09-27T10:53:00.409Z,22880.00
2018-09-27T10:54:00.425Z,22912.00
2018-09-27T10:55:00.438Z,22784.00
2018-09-27T10:56:00.450Z,22944.00
2018-09-27T10:57:00.504Z,22880.00
2018-09-27T10:58:00.471Z,22976.00
2018-09-27T10:59:00.485Z,23040.00
2018-09-27T11:00:00.499Z,23040.00
2018-09-27T11:01:00.516Z,22944.00
2018-09-27T11:02:00.529Z,23168.00
2018-09-27T11:03:00.538Z,23232.00
2018-09-27T11:04:00.555Z,23200.00
2018-09-27T11:05:00.569Z,23072.00
2018-09-27T11:06:00.582Z,23072.00
2018-09-27T11:07:00.595Z,22816.00
2018-09-27T11:08:00.608Z,22656.00
2018-09-27T11:09:00.617Z,22528.00
2018-09-27T11:10:00.632Z,22784.00
2018-09-27T11:11:00.662Z,22720.00
2018-09-27T11:12:00.656Z,23040.00
2018-09-27T11:13:00.674Z,23392.00
2018-09-27T11:14:00.687Z,23136.00
2018-09-27T11:15:00.701Z,22528.00
2018-09-27T11:16:00.714Z,21664.00
2018-09-27T11:17:00.722Z,15340.00
2018-09-27T11:18:00.735Z,7420.00
2018-09-27T11:19:00.751Z,5280.00
2018-09-27T11:20:00.772Z,4968.00
2018-09-27T11:21:00.769Z,4796.00
2018-09-27T11:22:00.852Z,4676.00
2018-09-27T11:23:00.793Z,4612.00
2018-09-27T11:24:00.809Z,4588.00
2018-09-27T11:25:00.818Z,4572.00
2018-09-27T11:26:00.829Z,4568.00
2018-09-27T11:27:00.839Z,4540.00
2018-09-27T11:28:00.849Z,4516.00
2018-09-27T11:29:00.910Z,4492.00
2018-09-27T11:30:00.861Z,4480.00
2018-09-27T11:31:00.875Z,4468.00
2018-09-27T11:32:00.877Z,4452.00
2018-09-27T11:33:00.944Z,4416.00
2018-09-27T11:34:00.896Z,4372.00
2018-09-27T11:35:00.900Z,4364.00
2018-09-27T11:36:00.905Z,4352.00
2018-09-27T11:37:00.915Z,4320.00
2018-09-27T11:38:00.931Z,4296.00
2018-09-27T11:39:00.928Z,4256.00
2018-09-27T11:40:00.936Z,4232.00
2018-09-27T11:41:00.934Z,4208.00
2018-09-27T11:42:00.940Z,4192.00
2018-09-27T11:43:00.946Z,4172.00
2018-09-27T11:44:01.058Z,4152.00
2018-09-27T11:45:00.960Z,4132.00
2018-09-27T11:46:00.965Z,4124.00
2018-09-27T11:47:00.970Z,4096.00
2018-09-27T11:48:00.974Z,4072.00
2018-09-27T11:49:01.016Z,4040.00
2018-09-27T11:50:01.101Z,4016.00
2018-09-27T11:51:00.986Z,3976.00
2018-09-27T11:52:00.990Z,3952.00
2018-09-27T11:53:00.988Z,3932.00
2018-09-27T11:54:00.995Z,3900.00
2018-09-27T11:55:01.042Z,3884.00
2018-09-27T11:56:01.056Z,3848.00
2018-09-27T11:57:01.009Z,3820.00
2018-09-27T11:58:01.011Z,3796.00
2018-09-27T11:59:01.047Z,3768.00
2018-09-27T12:00:01.018Z,3760.00
2018-09-27T12:01:01.016Z,3740.00
2018-09-27T12:02:01.020Z,3716.00
2018-09-27T12:03:01.023Z,3688.00
2018-09-27T12:04:01.026Z,3664.00
2018-09-27T12:05:01.032Z,3648.00
2018-09-27T12:06:01.035Z,3620.00
2018-09-27T12:07:01.041Z,3604.00
2018-09-27T12:08:01.036Z,3580.00
2018-09-27T12:09:01.046Z,3564.00
2018-09-27T12:10:01.046Z,3552.00
2018-09-27T12:11:01.051Z,3536.00
2018-09-27T12:12:01.095Z,3520.00
2018-09-27T12:13:01.048Z,3496.00
2018-09-27T12:14:01.051Z,3472.00
2018-09-27T12:15:01.053Z,3448.00
2018-09-27T12:16:01.058Z,3436.00
2018-09-27T12:17:01.063Z,3440.00
2018-09-27T12:18:01.065Z,3408.00
2018-09-27T12:19:01.067Z,3392.00
2018-09-27T12:20:01.112Z,3380.00
2018-09-27T12:21:01.068Z,3348.00
2018-09-27T12:22:01.068Z,3316.00
2018-09-27T12:23:01.148Z,3296.00
2018-09-27T12:24:01.077Z,3300.00
2018-09-27T12:25:01.075Z,3292.00